sensor_id;sensor_type;location;lat;lon;timestamp;pressure;altitude;pressure_sealevel;temperature;humidity
11343;BME280;5726;42.160;24.746;2024-03-06T00:01:35;99363.69;;;11.25;100.00
11343;BME280;5726;42.160;24.746;2024-03-06T00:04:03;99361.25;;;11.28;100.00
11343;BME280;5726;42.160;24.746;2024-03-06T00:06:29;99362.72;;;11.34;100.00
11343;BME280;5726;42.160;24.746;2024-03-06T00:08:55;99365.31;;;11.39;100.00
11343;BME280;5726;42.160;24.746;2024-03-06T00:11:21;99354.59;;;11.39;100.00
11343;BME280;5726;42.160;24.746;2024-03-06T00:13:47;99351.53;;;11.59;100.00
11343;BME280;5726;42.160;24.746;2024-03-06T00:16:13;99352.31;;;11.46;100.00
11343;BME280;5726;42.160;24.746;2024-03-06T00:18:39;99358.09;;;11.53;100.00
11343;BME280;5726;42.160;24.746;2024-03-06T00:21:05;99357.13;;;11.62;100.00
11343;BME280;5726;42.160;24.746;2024-03-06T00:23:32;99355.81;;;11.60;100.00
11343;BME280;5726;42.160;24.746;2024-03-06T00:25:57;99362.38;;;11.54;100.00
11343;BME280;5726;42.160;24.746;2024-03-06T00:28:23;99359.50;;;11.64;100.00
11343;BME280;5726;42.160;24.746;2024-03-06T00:30:49;99362.88;;;11.69;100.00
11343;BME280;5726;42.160;24.746;2024-03-06T00:33:15;99361.88;;;11.65;100.00
11343;BME280;5726;42.160;24.746;2024-03-06T00:35:40;99367.63;;;11.72;100.00
11343;BME280;5726;42.160;24.746;2024-03-06T00:38:06;99373.41;;;11.93;100.00
11343;BME280;5726;42.160;24.746;2024-03-06T00:40:32;99371.03;;;11.78;100.00
11343;BME280;5726;42.160;24.746;2024-03-06T00:42:58;99378.91;;;11.74;100.00
11343;BME280;5726;42.160;24.746;2024-03-06T00:45:24;99378.97;;;11.56;100.00
11343;BME280;5726;42.160;24.746;2024-03-06T00:47:50;99380.16;;;11.63;100.00
11343;BME280;5726;42.160;24.746;2024-03-06T00:50:15;99384.47;;;11.64;100.00
11343;BME280;5726;42.160;24.746;2024-03-06T00:52:42;99385.34;;;11.60;100.00
11343;BME280;5726;42.160;24.746;2024-03-06T00:55:09;99390.00;;;11.68;100.00
11343;BME280;5726;42.160;24.746;2024-03-06T00:57:35;99387.34;;;11.68;100.00
11343;BME280;5726;42.160;24.746;2024-03-06T01:00:02;99387.03;;;11.83;100.00
11343;BME280;5726;42.160;24.746;2024-03-06T01:02:31;99387.75;;;11.75;100.00
11343;BME280;5726;42.160;24.746;2024-03-06T01:04:57;99384.47;;;11.19;100.00
11343;BME280;5726;42.160;24.746;2024-03-06T01:07:22;99385.72;;;11.40;100.00
11343;BME280;5726;42.160;24.746;2024-03-06T01:09:48;99391.53;;;11.29;100.00
11343;BME280;5726;42.160;24.746;2024-03-06T01:12:13;99388.13;;;11.10;100.00
11343;BME280;5726;42.160;24.746;2024-03-06T01:14:39;99382.72;;;11.28;100.00
11343;BME280;5726;42.160;24.746;2024-03-06T01:17:04;99381.00;;;11.32;100.00
11343;BME280;5726;42.160;24.746;2024-03-06T01:19:30;99378.31;;;11.32;100.00
11343;BME280;5726;42.160;24.746;2024-03-06T01:21:56;99392.91;;;11.26;100.00
11343;BME280;5726;42.160;24.746;2024-03-06T01:24:21;99385.19;;;11.38;100.00
11343;BME280;5726;42.160;24.746;2024-03-06T01:26:47;99391.06;;;11.40;100.00
11343;BME280;5726;42.160;24.746;2024-03-06T01:29:12;99395.53;;;11.31;100.00
11343;BME280;5726;42.160;24.746;2024-03-06T01:31:38;99390.44;;;11.16;100.00
11343;BME280;5726;42.160;24.746;2024-03-06T01:34:03;99394.84;;;11.39;100.00
11343;BME280;5726;42.160;24.746;2024-03-06T01:36:29;99395.00;;;11.29;100.00
11343;BME280;5726;42.160;24.746;2024-03-06T01:38:55;99393.03;;;11.21;100.00
11343;BME280;5726;42.160;24.746;2024-03-06T01:41:20;99400.22;;;11.39;100.00
11343;BME280;5726;42.160;24.746;2024-03-06T01:43:46;99408.06;;;11.36;100.00
11343;BME280;5726;42.160;24.746;2024-03-06T01:46:12;99403.97;;;11.38;100.00
11343;BME280;5726;42.160;24.746;2024-03-06T01:48:38;99410.88;;;11.12;100.00
11343;BME280;5726;42.160;24.746;2024-03-06T01:51:04;99411.47;;;11.09;100.00
11343;BME280;5726;42.160;24.746;2024-03-06T01:53:31;99399.88;;;10.82;100.00
11343;BME280;5726;42.160;24.746;2024-03-06T01:55:58;99404.69;;;10.98;100.00
11343;BME280;5726;42.160;24.746;2024-03-06T01:58:24;99403.47;;;10.91;100.00
11343;BME280;5726;42.160;24.746;2024-03-06T02:00:50;99400.25;;;11.07;100.00
11343;BME280;5726;42.160;24.746;2024-03-06T02:03:18;99402.59;;;11.41;100.00
11343;BME280;5726;42.160;24.746;2024-03-06T02:05:44;99399.78;;;11.32;100.00
11343;BME280;5726;42.160;24.746;2024-03-06T02:08:10;99408.16;;;11.44;100.00
11343;BME280;5726;42.160;24.746;2024-03-06T02:10:36;99397.63;;;11.34;100.00
11343;BME280;5726;42.160;24.746;2024-03-06T02:13:01;99404.25;;;11.55;100.00
11343;BME280;5726;42.160;24.746;2024-03-06T02:15:27;99409.88;;;11.08;100.00
11343;BME280;5726;42.160;24.746;2024-03-06T02:17:52;99412.66;;;11.03;100.00
11343;BME280;5726;42.160;24.746;2024-03-06T02:20:24;99409.53;;;11.28;100.00
11343;BME280;5726;42.160;24.746;2024-03-06T02:22:50;99409.50;;;11.15;100.00
11343;BME280;5726;42.160;24.746;2024-03-06T02:25:16;99404.94;;;11.15;100.00
11343;BME280;5726;42.160;24.746;2024-03-06T02:27:43;99406.44;;;11.21;100.00
11343;BME280;5726;42.160;24.746;2024-03-06T02:30:09;99410.50;;;11.19;100.00
11343;BME280;5726;42.160;24.746;2024-03-06T02:32:35;99407.06;;;11.32;100.00
11343;BME280;5726;42.160;24.746;2024-03-06T02:35:01;99409.47;;;11.01;100.00
11343;BME280;5726;42.160;24.746;2024-03-06T02:37:28;99413.13;;;11.05;100.00
11343;BME280;5726;42.160;24.746;2024-03-06T02:39:54;99409.25;;;10.98;100.00
11343;BME280;5726;42.160;24.746;2024-03-06T02:42:20;99410.06;;;10.98;100.00
11343;BME280;5726;42.160;24.746;2024-03-06T02:44:45;99414.25;;;11.04;100.00
11343;BME280;5726;42.160;24.746;2024-03-06T02:47:11;99409.47;;;11.01;100.00
11343;BME280;5726;42.160;24.746;2024-03-06T02:49:37;99407.72;;;10.92;100.00
11343;BME280;5726;42.160;24.746;2024-03-06T02:52:02;99419.69;;;10.99;100.00
11343;BME280;5726;42.160;24.746;2024-03-06T02:54:28;99412.75;;;10.98;100.00
11343;BME280;5726;42.160;24.746;2024-03-06T02:56:54;99406.50;;;10.85;100.00
11343;BME280;5726;42.160;24.746;2024-03-06T02:59:19;99414.28;;;10.68;100.00
11343;BME280;5726;42.160;24.746;2024-03-06T03:01:45;99415.38;;;10.48;100.00
11343;BME280;5726;42.160;24.746;2024-03-06T03:04:10;99411.84;;;10.53;100.00
11343;BME280;5726;42.160;24.746;2024-03-06T03:06:36;99412.47;;;10.63;100.00
11343;BME280;5726;42.160;24.746;2024-03-06T03:09:02;99412.41;;;10.50;100.00
11343;BME280;5726;42.160;24.746;2024-03-06T03:11:29;99419.75;;;10.63;100.00
11343;BME280;5726;42.160;24.746;2024-03-06T03:13:55;99410.53;;;10.32;100.00
11343;BME280;5726;42.160;24.746;2024-03-06T03:16:21;99420.38;;;10.37;100.00
11343;BME280;5726;42.160;24.746;2024-03-06T03:18:46;99418.88;;;10.67;100.00
11343;BME280;5726;42.160;24.746;2024-03-06T03:21:13;99419.78;;;10.95;100.00
11343;BME280;5726;42.160;24.746;2024-03-06T03:23:39;99421.41;;;10.59;100.00
11343;BME280;5726;42.160;24.746;2024-03-06T03:26:08;99423.28;;;10.40;100.00
11343;BME280;5726;42.160;24.746;2024-03-06T03:28:38;99417.47;;;10.70;100.00
11343;BME280;5726;42.160;24.746;2024-03-06T03:31:06;99424.06;;;10.96;100.00
11343;BME280;5726;42.160;24.746;2024-03-06T03:33:31;99423.66;;;10.70;100.00
11343;BME280;5726;42.160;24.746;2024-03-06T03:35:57;99425.91;;;10.45;100.00
11343;BME280;5726;42.160;24.746;2024-03-06T03:38:22;99428.06;;;10.43;100.00
11343;BME280;5726;42.160;24.746;2024-03-06T03:40:48;99425.94;;;10.40;100.00
11343;BME280;5726;42.160;24.746;2024-03-06T03:43:13;99423.59;;;10.57;100.00
11343;BME280;5726;42.160;24.746;2024-03-06T03:45:39;99424.09;;;10.41;100.00
11343;BME280;5726;42.160;24.746;2024-03-06T03:48:05;99429.44;;;10.59;100.00
11343;BME280;5726;42.160;24.746;2024-03-06T03:50:31;99431.81;;;10.79;100.00
11343;BME280;5726;42.160;24.746;2024-03-06T03:52:57;99428.72;;;10.72;100.00
11343;BME280;5726;42.160;24.746;2024-03-06T03:55:26;99427.78;;;10.63;100.00
11343;BME280;5726;42.160;24.746;2024-03-06T03:57:51;99425.22;;;10.71;100.00
11343;BME280;5726;42.160;24.746;2024-03-06T04:00:18;99429.53;;;10.54;100.00
11343;BME280;5726;42.160;24.746;2024-03-06T04:02:44;99437.78;;;10.57;100.00
11343;BME280;5726;42.160;24.746;2024-03-06T04:05:09;99442.84;;;10.59;100.00
11343;BME280;5726;42.160;24.746;2024-03-06T04:07:36;99441.81;;;10.55;100.00
11343;BME280;5726;42.160;24.746;2024-03-06T04:10:03;99450.16;;;10.53;100.00
11343;BME280;5726;42.160;24.746;2024-03-06T04:12:29;99454.84;;;10.43;100.00
11343;BME280;5726;42.160;24.746;2024-03-06T04:14:54;99444.59;;;10.50;100.00
11343;BME280;5726;42.160;24.746;2024-03-06T04:17:20;99456.16;;;10.46;100.00
11343;BME280;5726;42.160;24.746;2024-03-06T04:19:45;99450.97;;;10.54;100.00
11343;BME280;5726;42.160;24.746;2024-03-06T04:22:13;99455.75;;;10.57;100.00
11343;BME280;5726;42.160;24.746;2024-03-06T04:24:41;99449.81;;;10.60;100.00
11343;BME280;5726;42.160;24.746;2024-03-06T04:27:07;99457.03;;;10.41;100.00
11343;BME280;5726;42.160;24.746;2024-03-06T04:29:33;99465.44;;;10.53;100.00
11343;BME280;5726;42.160;24.746;2024-03-06T04:31:59;99460.09;;;10.53;100.00
11343;BME280;5726;42.160;24.746;2024-03-06T04:34:24;99458.78;;;10.69;100.00
11343;BME280;5726;42.160;24.746;2024-03-06T04:36:50;99459.59;;;10.69;100.00
11343;BME280;5726;42.160;24.746;2024-03-06T04:39:15;99461.75;;;10.86;100.00
11343;BME280;5726;42.160;24.746;2024-03-06T04:41:41;99467.69;;;10.83;100.00
11343;BME280;5726;42.160;24.746;2024-03-06T04:44:06;99473.56;;;10.85;100.00
11343;BME280;5726;42.160;24.746;2024-03-06T04:46:32;99473.66;;;10.61;100.00
11343;BME280;5726;42.160;24.746;2024-03-06T04:48:57;99472.03;;;10.60;100.00
11343;BME280;5726;42.160;24.746;2024-03-06T04:51:23;99473.28;;;10.68;100.00
11343;BME280;5726;42.160;24.746;2024-03-06T04:53:49;99475.38;;;10.71;100.00
11343;BME280;5726;42.160;24.746;2024-03-06T04:56:15;99476.69;;;10.73;100.00
11343;BME280;5726;42.160;24.746;2024-03-06T04:58:44;99486.78;;;10.63;100.00
11343;BME280;5726;42.160;24.746;2024-03-06T05:01:11;99483.97;;;11.23;100.00
11343;BME280;5726;42.160;24.746;2024-03-06T05:03:36;99479.31;;;11.28;100.00
11343;BME280;5726;42.160;24.746;2024-03-06T05:06:04;99487.63;;;11.13;100.00
11343;BME280;5726;42.160;24.746;2024-03-06T05:08:30;99479.78;;;11.48;100.00
11343;BME280;5726;42.160;24.746;2024-03-06T05:10:56;99488.19;;;11.60;100.00
11343;BME280;5726;42.160;24.746;2024-03-06T05:13:22;99487.88;;;11.62;100.00
11343;BME280;5726;42.160;24.746;2024-03-06T05:15:47;99495.44;;;11.28;100.00
11343;BME280;5726;42.160;24.746;2024-03-06T05:18:13;99496.84;;;11.07;100.00
11343;BME280;5726;42.160;24.746;2024-03-06T05:20:38;99497.81;;;11.11;100.00
11343;BME280;5726;42.160;24.746;2024-03-06T05:23:04;99504.88;;;11.07;100.00
11343;BME280;5726;42.160;24.746;2024-03-06T05:25:29;99500.38;;;10.85;100.00
11343;BME280;5726;42.160;24.746;2024-03-06T05:27:55;99506.91;;;10.79;100.00
11343;BME280;5726;42.160;24.746;2024-03-06T05:30:21;99512.13;;;10.89;100.00
11343;BME280;5726;42.160;24.746;2024-03-06T05:32:46;99522.56;;;11.08;100.00
11343;BME280;5726;42.160;24.746;2024-03-06T05:35:12;99528.72;;;10.72;100.00
11343;BME280;5726;42.160;24.746;2024-03-06T05:37:38;99532.16;;;10.78;100.00
11343;BME280;5726;42.160;24.746;2024-03-06T05:40:04;99525.13;;;11.00;100.00
11343;BME280;5726;42.160;24.746;2024-03-06T05:42:30;99522.66;;;11.35;100.00
11343;BME280;5726;42.160;24.746;2024-03-06T05:44:57;99536.03;;;11.40;100.00
11343;BME280;5726;42.160;24.746;2024-03-06T05:47:26;99531.16;;;11.42;100.00
11343;BME280;5726;42.160;24.746;2024-03-06T05:49:52;99534.50;;;11.52;100.00
11343;BME280;5726;42.160;24.746;2024-03-06T05:52:18;99543.13;;;11.81;100.00
11343;BME280;5726;42.160;24.746;2024-03-06T05:54:43;99544.59;;;11.74;100.00
11343;BME280;5726;42.160;24.746;2024-03-06T05:57:09;99547.94;;;11.52;100.00
11343;BME280;5726;42.160;24.746;2024-03-06T05:59:34;99538.63;;;11.77;100.00
11343;BME280;5726;42.160;24.746;2024-03-06T06:02:00;99542.50;;;11.71;100.00
11343;BME280;5726;42.160;24.746;2024-03-06T06:04:26;99549.25;;;11.55;100.00
11343;BME280;5726;42.160;24.746;2024-03-06T06:06:51;99545.41;;;11.06;100.00
11343;BME280;5726;42.160;24.746;2024-03-06T06:09:17;99543.09;;;11.18;100.00
11343;BME280;5726;42.160;24.746;2024-03-06T06:11:44;99557.31;;;11.00;100.00
11343;BME280;5726;42.160;24.746;2024-03-06T06:14:10;99550.63;;;11.16;100.00
11343;BME280;5726;42.160;24.746;2024-03-06T06:16:39;99549.84;;;11.15;100.00
11343;BME280;5726;42.160;24.746;2024-03-06T06:19:06;99546.03;;;11.53;100.00
11343;BME280;5726;42.160;24.746;2024-03-06T06:21:32;99548.59;;;11.76;100.00
11343;BME280;5726;42.160;24.746;2024-03-06T06:24:01;99561.19;;;12.07;100.00
11343;BME280;5726;42.160;24.746;2024-03-06T06:26:26;99570.75;;;12.13;100.00
11343;BME280;5726;42.160;24.746;2024-03-06T06:28:52;99563.59;;;12.09;100.00
11343;BME280;5726;42.160;24.746;2024-03-06T06:31:17;99560.41;;;12.07;100.00
11343;BME280;5726;42.160;24.746;2024-03-06T06:33:43;99566.28;;;11.64;100.00
11343;BME280;5726;42.160;24.746;2024-03-06T06:36:10;99567.78;;;11.70;100.00
11343;BME280;5726;42.160;24.746;2024-03-06T06:38:36;99566.78;;;12.11;100.00
11343;BME280;5726;42.160;24.746;2024-03-06T06:41:01;99567.50;;;12.70;100.00
11343;BME280;5726;42.160;24.746;2024-03-06T06:43:29;99577.19;;;13.19;100.00
11343;BME280;5726;42.160;24.746;2024-03-06T06:45:55;99565.50;;;13.02;100.00
11343;BME280;5726;42.160;24.746;2024-03-06T06:48:21;99566.28;;;13.02;100.00
11343;BME280;5726;42.160;24.746;2024-03-06T06:50:46;99563.50;;;12.67;100.00
11343;BME280;5726;42.160;24.746;2024-03-06T06:53:13;99572.28;;;12.73;100.00
11343;BME280;5726;42.160;24.746;2024-03-06T06:55:39;99570.38;;;12.87;100.00
11343;BME280;5726;42.160;24.746;2024-03-06T06:58:04;99574.22;;;13.07;100.00
11343;BME280;5726;42.160;24.746;2024-03-06T07:00:30;99571.94;;;13.14;100.00
11343;BME280;5726;42.160;24.746;2024-03-06T07:02:56;99573.69;;;13.54;100.00
11343;BME280;5726;42.160;24.746;2024-03-06T07:05:24;99580.28;;;13.91;100.00
11343;BME280;5726;42.160;24.746;2024-03-06T07:07:49;99577.59;;;14.13;100.00
11343;BME280;5726;42.160;24.746;2024-03-06T07:10:15;99577.44;;;14.48;100.00
11343;BME280;5726;42.160;24.746;2024-03-06T07:12:41;99584.50;;;14.75;100.00
11343;BME280;5726;42.160;24.746;2024-03-06T07:15:06;99584.34;;;14.71;100.00
11343;BME280;5726;42.160;24.746;2024-03-06T07:17:32;99583.25;;;14.81;100.00
11343;BME280;5726;42.160;24.746;2024-03-06T07:19:58;99573.09;;;14.78;100.00
11343;BME280;5726;42.160;24.746;2024-03-06T07:22:24;99577.50;;;14.74;100.00
11343;BME280;5726;42.160;24.746;2024-03-06T07:24:49;99578.63;;;14.73;100.00
11343;BME280;5726;42.160;24.746;2024-03-06T07:27:15;99577.81;;;14.64;100.00
11343;BME280;5726;42.160;24.746;2024-03-06T07:29:41;99576.94;;;14.93;100.00
11343;BME280;5726;42.160;24.746;2024-03-06T07:32:06;99579.00;;;14.96;100.00
11343;BME280;5726;42.160;24.746;2024-03-06T07:34:32;99578.06;;;15.01;100.00
11343;BME280;5726;42.160;24.746;2024-03-06T07:36:59;99581.72;;;15.13;100.00
11343;BME280;5726;42.160;24.746;2024-03-06T07:39:25;99576.50;;;15.08;100.00
11343;BME280;5726;42.160;24.746;2024-03-06T07:41:51;99583.53;;;14.71;100.00
11343;BME280;5726;42.160;24.746;2024-03-06T07:44:16;99585.75;;;14.30;100.00
11343;BME280;5726;42.160;24.746;2024-03-06T07:46:42;99583.00;;;14.13;100.00
11343;BME280;5726;42.160;24.746;2024-03-06T07:49:07;99573.41;;;14.37;100.00
11343;BME280;5726;42.160;24.746;2024-03-06T07:51:33;99574.81;;;14.35;100.00
11343;BME280;5726;42.160;24.746;2024-03-06T07:53:59;99571.41;;;14.43;100.00
11343;BME280;5726;42.160;24.746;2024-03-06T07:56:27;99582.16;;;14.82;100.00
11343;BME280;5726;42.160;24.746;2024-03-06T07:58:54;99566.47;;;14.92;100.00
11343;BME280;5726;42.160;24.746;2024-03-06T08:01:20;99575.81;;;14.94;100.00
11343;BME280;5726;42.160;24.746;2024-03-06T08:03:48;99573.94;;;14.48;100.00
11343;BME280;5726;42.160;24.746;2024-03-06T08:06:14;99575.75;;;14.61;100.00
11343;BME280;5726;42.160;24.746;2024-03-06T08:08:42;99575.94;;;14.73;100.00
11343;BME280;5726;42.160;24.746;2024-03-06T08:11:12;99578.59;;;14.64;100.00
11343;BME280;5726;42.160;24.746;2024-03-06T08:13:38;99579.59;;;14.38;100.00
11343;BME280;5726;42.160;24.746;2024-03-06T08:16:05;99583.69;;;14.27;100.00
11343;BME280;5726;42.160;24.746;2024-03-06T08:18:32;99572.44;;;14.03;100.00
11343;BME280;5726;42.160;24.746;2024-03-06T08:20:58;99581.03;;;14.05;100.00
11343;BME280;5726;42.160;24.746;2024-03-06T08:23:23;99575.13;;;14.25;100.00
11343;BME280;5726;42.160;24.746;2024-03-06T08:25:50;99581.63;;;14.63;100.00
11343;BME280;5726;42.160;24.746;2024-03-06T08:28:16;99566.94;;;15.02;100.00
11343;BME280;5726;42.160;24.746;2024-03-06T08:30:42;99573.84;;;15.25;100.00
11343;BME280;5726;42.160;24.746;2024-03-06T08:33:09;99572.38;;;15.70;100.00
11343;BME280;5726;42.160;24.746;2024-03-06T08:35:35;99575.38;;;15.77;100.00
11343;BME280;5726;42.160;24.746;2024-03-06T08:38:01;99576.81;;;15.91;100.00
11343;BME280;5726;42.160;24.746;2024-03-06T08:40:26;99569.66;;;15.86;100.00
11343;BME280;5726;42.160;24.746;2024-03-06T08:42:56;99567.53;;;16.00;100.00
11343;BME280;5726;42.160;24.746;2024-03-06T08:45:22;99570.44;;;16.49;100.00
11343;BME280;5726;42.160;24.746;2024-03-06T08:47:50;99567.88;;;16.81;100.00
11343;BME280;5726;42.160;24.746;2024-03-06T08:50:17;99569.78;;;16.52;100.00
11343;BME280;5726;42.160;24.746;2024-03-06T08:52:43;99568.97;;;16.60;100.00
11343;BME280;5726;42.160;24.746;2024-03-06T08:55:08;99572.28;;;16.94;82.06
11343;BME280;5726;42.160;24.746;2024-03-06T08:57:35;99571.16;;;16.95;82.67
11343;BME280;5726;42.160;24.746;2024-03-06T09:00:02;99571.97;;;17.16;80.69
11343;BME280;5726;42.160;24.746;2024-03-06T09:02:27;99565.22;;;16.44;83.32
11343;BME280;5726;42.160;24.746;2024-03-06T09:04:53;99559.97;;;16.97;82.38
11343;BME280;5726;42.160;24.746;2024-03-06T09:07:19;99567.13;;;17.30;80.90
11343;BME280;5726;42.160;24.746;2024-03-06T09:09:49;99558.91;;;17.59;79.77
11343;BME280;5726;42.160;24.746;2024-03-06T09:12:15;99559.13;;;17.54;80.98
11343;BME280;5726;42.160;24.746;2024-03-06T09:14:41;99562.13;;;17.72;81.20
11343;BME280;5726;42.160;24.746;2024-03-06T09:17:07;99556.09;;;17.99;79.89
11343;BME280;5726;42.160;24.746;2024-03-06T09:19:36;99553.91;;;18.13;79.41
11343;BME280;5726;42.160;24.746;2024-03-06T09:22:01;99563.66;;;18.26;79.55
11343;BME280;5726;42.160;24.746;2024-03-06T09:24:28;99553.63;;;18.50;77.74
11343;BME280;5726;42.160;24.746;2024-03-06T09:26:54;99549.22;;;18.34;76.71
11343;BME280;5726;42.160;24.746;2024-03-06T09:29:20;99547.19;;;17.99;79.62
11343;BME280;5726;42.160;24.746;2024-03-06T09:31:47;99541.19;;;18.05;79.46
11343;BME280;5726;42.160;24.746;2024-03-06T09:34:13;99545.88;;;17.84;78.44
11343;BME280;5726;42.160;24.746;2024-03-06T09:36:41;99533.22;;;17.56;79.15
11343;BME280;5726;42.160;24.746;2024-03-06T09:39:14;99534.81;;;17.77;79.82
11343;BME280;5726;42.160;24.746;2024-03-06T09:41:49;99537.19;;;17.79;79.50
11343;BME280;5726;42.160;24.746;2024-03-06T09:44:16;99536.88;;;17.92;79.88
11343;BME280;5726;42.160;24.746;2024-03-06T09:46:43;99533.94;;;18.29;74.68
11343;BME280;5726;42.160;24.746;2024-03-06T09:49:15;99531.16;;;18.06;76.36
11343;BME280;5726;42.160;24.746;2024-03-06T09:51:45;99527.63;;;17.61;78.55
11343;BME280;5726;42.160;24.746;2024-03-06T09:54:12;99528.41;;;17.62;79.95
11343;BME280;5726;42.160;24.746;2024-03-06T09:56:43;99528.84;;;17.64;78.55
11343;BME280;5726;42.160;24.746;2024-03-06T09:59:11;99538.31;;;17.25;80.36
11343;BME280;5726;42.160;24.746;2024-03-06T10:01:59;99527.84;;;17.36;79.13
11343;BME280;5726;42.160;24.746;2024-03-06T10:04:28;99520.41;;;17.04;84.11
11343;BME280;5726;42.160;24.746;2024-03-06T10:06:58;99526.25;;;17.35;81.27
11343;BME280;5726;42.160;24.746;2024-03-06T10:09:24;99520.22;;;17.50;78.10
11343;BME280;5726;42.160;24.746;2024-03-06T10:11:50;99522.84;;;17.18;79.46
11343;BME280;5726;42.160;24.746;2024-03-06T10:14:19;99515.41;;;17.35;79.41
11343;BME280;5726;42.160;24.746;2024-03-06T10:16:55;99512.44;;;17.80;76.76
11343;BME280;5726;42.160;24.746;2024-03-06T10:19:28;99509.31;;;17.58;79.17
11343;BME280;5726;42.160;24.746;2024-03-06T10:21:55;99500.41;;;17.70;77.46
11343;BME280;5726;42.160;24.746;2024-03-06T10:24:28;99497.09;;;18.08;75.52
11343;BME280;5726;42.160;24.746;2024-03-06T10:26:55;99498.31;;;18.31;75.40
11343;BME280;5726;42.160;24.746;2024-03-06T10:29:24;99504.47;;;18.08;74.19
11343;BME280;5726;42.160;24.746;2024-03-06T10:31:55;99497.78;;;18.05;72.43
11343;BME280;5726;42.160;24.746;2024-03-06T10:34:23;99498.59;;;18.06;72.60
11343;BME280;5726;42.160;24.746;2024-03-06T10:37:01;99496.22;;;17.60;73.63
11343;BME280;5726;42.160;24.746;2024-03-06T10:39:30;99495.69;;;17.78;72.23
11343;BME280;5726;42.160;24.746;2024-03-06T10:42:02;99486.81;;;17.58;73.25
11343;BME280;5726;42.160;24.746;2024-03-06T10:44:27;99486.97;;;17.41;74.22
11343;BME280;5726;42.160;24.746;2024-03-06T10:47:05;99483.47;;;17.72;75.31
11343;BME280;5726;42.160;24.746;2024-03-06T10:49:31;99483.72;;;17.79;73.69
11343;BME280;5726;42.160;24.746;2024-03-06T10:52:04;99476.53;;;17.95;73.53
11343;BME280;5726;42.160;24.746;2024-03-06T10:54:34;99473.28;;;18.14;72.78
11343;BME280;5726;42.160;24.746;2024-03-06T10:57:02;99472.63;;;18.40;78.01
11343;BME280;5726;42.160;24.746;2024-03-06T10:59:29;99464.13;;;18.54;71.16
11343;BME280;5726;42.160;24.746;2024-03-06T11:01:59;99460.28;;;18.67;69.49
11343;BME280;5726;42.160;24.746;2024-03-06T11:04:31;99465.88;;;18.85;67.81
11343;BME280;5726;42.160;24.746;2024-03-06T11:07:00;99464.09;;;18.77;65.62
11343;BME280;5726;42.160;24.746;2024-03-06T11:09:34;99465.47;;;18.60;65.96
11343;BME280;5726;42.160;24.746;2024-03-06T11:12:07;99458.66;;;18.77;66.04
11343;BME280;5726;42.160;24.746;2024-03-06T11:14:35;99456.66;;;18.63;65.18
11343;BME280;5726;42.160;24.746;2024-03-06T11:17:03;99454.50;;;18.56;64.36
11343;BME280;5726;42.160;24.746;2024-03-06T11:19:30;99450.25;;;18.82;64.44
11343;BME280;5726;42.160;24.746;2024-03-06T11:21:56;99445.94;;;18.93;64.22
11343;BME280;5726;42.160;24.746;2024-03-06T11:24:23;99448.31;;;18.95;65.02
11343;BME280;5726;42.160;24.746;2024-03-06T11:26:59;99433.19;;;18.82;65.15
11343;BME280;5726;42.160;24.746;2024-03-06T11:29:28;99436.88;;;18.89;64.97
11343;BME280;5726;42.160;24.746;2024-03-06T11:32:04;99441.72;;;18.96;65.50
11343;BME280;5726;42.160;24.746;2024-03-06T11:34:33;99441.66;;;18.80;65.04
11343;BME280;5726;42.160;24.746;2024-03-06T11:37:03;99433.06;;;18.90;63.59
11343;BME280;5726;42.160;24.746;2024-03-06T11:39:33;99434.13;;;19.01;62.11
11343;BME280;5726;42.160;24.746;2024-03-06T11:42:00;99433.50;;;18.80;62.44
11343;BME280;5726;42.160;24.746;2024-03-06T11:44:26;99429.03;;;18.61;67.71
11343;BME280;5726;42.160;24.746;2024-03-06T11:47:01;99422.91;;;18.75;68.85
11343;BME280;5726;42.160;24.746;2024-03-06T11:49:27;99429.41;;;18.47;70.36
11343;BME280;5726;42.160;24.746;2024-03-06T11:52:04;99431.31;;;18.35;70.53
11343;BME280;5726;42.160;24.746;2024-03-06T11:54:31;99425.88;;;18.47;70.49
11343;BME280;5726;42.160;24.746;2024-03-06T11:56:59;99422.47;;;18.02;71.54
11343;BME280;5726;42.160;24.746;2024-03-06T11:59:29;99427.00;;;17.98;71.92
11343;BME280;5726;42.160;24.746;2024-03-06T12:01:57;99437.56;;;17.56;73.17
11343;BME280;5726;42.160;24.746;2024-03-06T12:04:24;99434.59;;;17.17;74.68
11343;BME280;5726;42.160;24.746;2024-03-06T12:06:49;99432.13;;;17.23;75.01
11343;BME280;5726;42.160;24.746;2024-03-06T12:09:15;99413.97;;;17.24;74.30
11343;BME280;5726;42.160;24.746;2024-03-06T12:11:41;99413.50;;;17.22;74.68
11343;BME280;5726;42.160;24.746;2024-03-06T12:14:20;99423.28;;;17.35;74.46
11343;BME280;5726;42.160;24.746;2024-03-06T12:16:59;99422.63;;;17.50;74.05
11343;BME280;5726;42.160;24.746;2024-03-06T12:19:28;99408.81;;;17.43;71.12
11343;BME280;5726;42.160;24.746;2024-03-06T12:21:55;99414.13;;;17.39;70.91
11343;BME280;5726;42.160;24.746;2024-03-06T12:24:24;99416.75;;;17.48;71.28
11343;BME280;5726;42.160;24.746;2024-03-06T12:26:59;99414.97;;;16.99;71.92
11343;BME280;5726;42.160;24.746;2024-03-06T12:29:28;99408.72;;;17.19;71.61
11343;BME280;5726;42.160;24.746;2024-03-06T12:31:55;99414.44;;;17.26;72.28
11343;BME280;5726;42.160;24.746;2024-03-06T12:34:22;99412.44;;;17.35;72.09
11343;BME280;5726;42.160;24.746;2024-03-06T12:36:48;99414.91;;;17.40;72.80
11343;BME280;5726;42.160;24.746;2024-03-06T12:39:15;99403.47;;;17.23;73.94
11343;BME280;5726;42.160;24.746;2024-03-06T12:41:43;99399.31;;;17.37;73.43
11343;BME280;5726;42.160;24.746;2024-03-06T12:44:09;99411.31;;;17.36;73.23
11343;BME280;5726;42.160;24.746;2024-03-06T12:46:34;99408.25;;;17.37;73.08
11343;BME280;5726;42.160;24.746;2024-03-06T12:49:00;99416.41;;;17.37;73.71
11343;BME280;5726;42.160;24.746;2024-03-06T12:51:26;99407.69;;;17.12;74.23